Time;durP1;ratioP1;P1;durP2;ratioP2;P2;SDS_P1;SDS_P2;PMS_P1;PMS_P2;Temp;Humidity;BMP_temperature;BMP_pressure;BME280_temperature;BME280_humidity;BME280_pressure;Samples;Min_cycle;Max_cycle;Signal;HPM_P1;HPM_P2
2023/05/22 00:00:31;;;;;;;7.57;2.72;;;;;;;;;;5026879;28;20036;-77
2023/05/22 00:02:59;;;;;;;4.43;2.70;;;;;;;;;;5036109;28;20061;-77
2023/05/22 00:05:24;;;;;;;5.00;2.33;;;;;;;;;;5014057;28;20155;-77
2023/05/22 00:07:50;;;;;;;6.18;2.97;;;;;;;;;;5034650;28;20524;-78
2023/05/22 00:10:15;;;;;;;5.18;2.53;;;;;;;;;;5032900;28;20064;-76
2023/05/22 00:12:41;;;;;;;4.50;2.22;;;;;;;;;;5024986;28;20369;-79
2023/05/22 00:15:06;;;;;;;3.95;2.28;;;;;;;;;;5031601;28;20028;-77
2023/05/22 00:17:32;;;;;;;5.95;2.78;;;;;;;;;;5041717;28;20033;-76
2023/05/22 00:20:03;;;;;;;4.32;2.40;;;;;;;;;;5032333;28;20040;-77
2023/05/22 00:22:30;;;;;;;5.85;2.40;;;;;;;;;;5033407;28;20095;-76
2023/05/22 00:24:56;;;;;;;3.90;2.40;;;;;;;;;;5035017;28;20088;-76
2023/05/22 00:27:21;;;;;;;6.15;2.60;;;;;;;;;;5016085;28;20041;-75
2023/05/22 00:29:47;;;;;;;5.90;2.58;;;;;;;;;;5031812;28;20044;-76
2023/05/22 00:32:12;;;;;;;5.75;3.03;;;;;;;;;;5031916;28;20443;-76
2023/05/22 00:34:38;;;;;;;4.82;2.70;;;;;;;;;;5032237;28;20040;-76
2023/05/22 00:37:03;;;;;;;6.45;2.40;;;;;;;;;;5032373;28;20034;-77
2023/05/22 00:39:29;;;;;;;5.15;2.80;;;;;;;;;;5034355;28;20057;-75
2023/05/22 00:41:55;;;;;;;4.30;2.33;;;;;;;;;;5032371;28;20544;-76
2023/05/22 00:44:20;;;;;;;4.40;2.45;;;;;;;;;;5035338;28;20037;-76
2023/05/22 00:46:45;;;;;;;4.30;2.35;;;;;;;;;;5040452;28;20033;-76
2023/05/22 00:49:11;;;;;;;4.85;2.35;;;;;;;;;;5001310;28;20346;-76
2023/05/22 00:51:36;;;;;;;5.60;2.70;;;;;;;;;;5025891;28;20033;-77
2023/05/22 00:54:03;;;;;;;4.18;2.30;;;;;;;;;;5031977;28;20045;-77
2023/05/22 00:56:29;;;;;;;5.97;2.40;;;;;;;;;;5032105;28;20512;-77
2023/05/22 00:58:54;;;;;;;4.50;2.60;;;;;;;;;;5025812;28;20033;-78
2023/05/22 01:01:21;;;;;;;4.50;2.50;;;;;;;;;;5032781;28;20036;-78
2023/05/22 01:03:47;;;;;;;5.55;2.50;;;;;;;;;;5041528;28;20090;-78
2023/05/22 01:06:14;;;;;;;3.70;2.30;;;;;;;;;;5031028;28;20025;-77
2023/05/22 01:08:41;;;;;;;3.83;2.30;;;;;;;;;;5030539;28;20144;-78
2023/05/22 01:11:12;;;;;;;4.90;2.20;;;;;;;;;;5030225;28;20051;-78
2023/05/22 01:13:45;;;;;;;4.15;2.47;;;;;;;;;;5032216;28;20060;-78
2023/05/22 01:16:47;;;;;;;5.38;2.20;;;;;;;;;;5029793;28;20120;-76
2023/05/22 01:19:30;;;;;;;3.70;2.25;;;;;;;;;;5031774;28;20037;-77
2023/05/22 01:22:23;;;;;;;4.78;2.53;;;;;;;;;;5032859;28;20029;-76
2023/05/22 01:25:05;;;;;;;4.85;2.28;;;;;;;;;;5033678;28;20481;-76
2023/05/22 01:28:08;;;;;;;6.63;2.58;;;;;;;;;;5013850;28;20044;-76
2023/05/22 01:30:55;;;;;;;4.47;2.40;;;;;;;;;;5015355;28;20052;-77
2023/05/22 01:33:24;;;;;;;3.95;2.25;;;;;;;;;;5033223;28;20029;-76
2023/05/22 01:35:52;;;;;;;5.28;2.30;;;;;;;;;;5039258;28;20045;-76
2023/05/22 01:38:18;;;;;;;5.68;2.60;;;;;;;;;;5033214;28;20113;-76
2023/05/22 01:40:45;;;;;;;5.70;2.45;;;;;;;;;;5032583;28;20518;-76
2023/05/22 01:43:12;;;;;;;4.22;2.40;;;;;;;;;;5031286;28;20436;-75
2023/05/22 01:45:37;;;;;;;5.05;2.35;;;;;;;;;;5029606;28;20088;-77
2023/05/22 01:48:03;;;;;;;5.20;2.53;;;;;;;;;;5034133;28;20029;-76
2023/05/22 01:50:28;;;;;;;3.80;2.17;;;;;;;;;;5015598;28;20029;-76
2023/05/22 01:53:28;;;;;;;4.25;2.60;;;;;;;;;;5027839;28;20036;-76
2023/05/22 01:56:00;;;;;;;4.53;2.40;;;;;;;;;;5031106;28;20048;-76
2023/05/22 01:58:43;;;;;;;4.38;2.45;;;;;;;;;;5030712;28;20060;-76
2023/05/22 02:01:09;;;;;;;3.90;2.30;;;;;;;;;;5039281;28;20029;-76
2023/05/22 02:03:35;;;;;;;5.00;2.37;;;;;;;;;;5032047;28;20025;-76
2023/05/22 02:06:05;;;;;;;5.47;2.20;;;;;;;;;;5031372;28;20746;-76
2023/05/22 02:08:31;;;;;;;4.65;2.50;;;;;;;;;;5034369;28;20060;-76
2023/05/22 02:10:57;;;;;;;4.40;2.50;;;;;;;;;;5041334;28;20064;-76
2023/05/22 02:13:23;;;;;;;3.80;2.17;;;;;;;;;;5038286;28;20029;-76
2023/05/22 02:15:48;;;;;;;7.65;2.83;;;;;;;;;;5033776;28;20045;-76
2023/05/22 02:18:17;;;;;;;5.45;2.50;;;;;;;;;;5047305;28;20060;-77
2023/05/22 02:20:42;;;;;;;4.82;2.50;;;;;;;;;;5019612;28;20116;-77
2023/05/22 02:23:08;;;;;;;5.05;2.88;;;;;;;;;;5037476;28;20100;-77
2023/05/22 02:25:33;;;;;;;5.05;2.45;;;;;;;;;;5038159;28;20076;-79
2023/05/22 02:27:59;;;;;;;3.88;2.20;;;;;;;;;;5031340;28;20238;-76
2023/05/22 02:30:24;;;;;;;4.25;2.30;;;;;;;;;;5033295;28;20053;-76
2023/05/22 02:32:50;;;;;;;4.63;2.40;;;;;;;;;;5035986;28;20037;-76
2023/05/22 02:35:15;;;;;;;4.85;2.40;;;;;;;;;;5035778;28;20405;-76
2023/05/22 02:37:41;;;;;;;5.70;2.60;;;;;;;;;;5024614;28;20180;-76
2023/05/22 02:40:07;;;;;;;5.93;2.58;;;;;;;;;;5035612;28;20155;-76
2023/05/22 02:42:32;;;;;;;4.70;2.40;;;;;;;;;;5023366;28;20068;-76
2023/05/22 02:44:58;;;;;;;5.47;2.90;;;;;;;;;;5035472;28;20041;-76
2023/05/22 02:47:23;;;;;;;3.70;2.30;;;;;;;;;;5036690;28;20103;-76
2023/05/22 02:49:49;;;;;;;8.45;2.70;;;;;;;;;;5024603;28;20036;-76
2023/05/22 02:52:15;;;;;;;4.75;2.35;;;;;;;;;;5038327;28;20067;-76
2023/05/22 02:54:40;;;;;;;5.93;2.65;;;;;;;;;;5036950;28;20155;-78
2023/05/22 02:57:08;;;;;;;4.55;2.45;;;;;;;;;;5042703;28;20075;-76
2023/05/22 02:59:35;;;;;;;5.03;2.72;;;;;;;;;;5055136;28;20036;-77
2023/05/22 03:02:01;;;;;;;4.78;2.70;;;;;;;;;;5058751;28;20091;-76
2023/05/22 03:04:28;;;;;;;4.25;2.47;;;;;;;;;;5039694;28;20036;-76
2023/05/22 03:06:54;;;;;;;4.47;2.60;;;;;;;;;;5058275;28;20060;-76
2023/05/22 03:09:19;;;;;;;4.60;2.60;;;;;;;;;;5058285;28;20028;-76
2023/05/22 03:11:45;;;;;;;4.70;2.70;;;;;;;;;;5023895;28;20038;-76
2023/05/22 03:14:10;;;;;;;4.25;2.65;;;;;;;;;;5023992;28;20049;-76
2023/05/22 03:16:36;;;;;;;5.20;2.83;;;;;;;;;;5042313;28;20458;-77
2023/05/22 03:19:13;;;;;;;5.30;2.90;;;;;;;;;;5039502;28;20036;-76
2023/05/22 03:21:39;;;;;;;;;;;;;;;;;;5047690;28;20441;-76
2023/05/22 03:24:05;;;;;;;6.28;2.35;;;;;;;;;;5037558;28;19920;-78
2023/05/22 03:26:30;;;;;;;5.47;2.65;;;;;;;;;;5055928;28;20040;-78
2023/05/22 03:28:56;;;;;;;6.07;3.00;;;;;;;;;;5034468;28;20033;-76
2023/05/22 03:31:26;;;;;;;4.70;2.75;;;;;;;;;;5034683;28;20029;-76
2023/05/22 03:33:51;;;;;;;5.40;2.95;;;;;;;;;;5037659;28;20040;-76
2023/05/22 03:36:18;;;;;;;6.68;2.67;;;;;;;;;;5034339;28;20036;-76
2023/05/22 03:38:43;;;;;;;5.72;2.75;;;;;;;;;;5030232;28;20112;-78
2023/05/22 03:41:08;;;;;;;9.15;3.20;;;;;;;;;;5035461;28;20500;-75
2023/05/22 03:43:34;;;;;;;4.78;3.00;;;;;;;;;;5038951;28;20033;-77
2023/05/22 03:46:00;;;;;;;6.60;2.90;;;;;;;;;;5036716;28;20033;-77
2023/05/22 03:48:25;;;;;;;6.25;2.85;;;;;;;;;;5036587;28;20156;-76
2023/05/22 03:50:50;;;;;;;7.30;4.20;;;;;;;;;;5029200;28;20037;-76
2023/05/22 03:53:16;;;;;;;4.43;2.70;;;;;;;;;;5035748;28;20106;-76
2023/05/22 03:55:42;;;;;;;4.90;2.72;;;;;;;;;;5039800;28;20098;-76
2023/05/22 03:58:07;;;;;;;6.38;2.70;;;;;;;;;;5029340;28;20032;-76
2023/05/22 04:00:33;;;;;;;6.20;2.85;;;;;;;;;;5023085;28;20067;-77
2023/05/22 04:02:59;;;;;;;4.10;2.40;;;;;;;;;;5033861;28;20051;-77
2023/05/22 04:05:24;;;;;;;4.72;3.05;;;;;;;;;;5035411;28;20028;-77
2023/05/22 04:07:50;;;;;;;4.75;2.72;;;;;;;;;;5022453;28;20047;-77
2023/05/22 04:10:15;;;;;;;4.63;2.70;;;;;;;;;;5036016;28;20443;-76
2023/05/22 04:12:40;;;;;;;6.15;2.70;;;;;;;;;;5055204;28;20041;-77
2023/05/22 04:15:07;;;;;;;5.07;2.83;;;;;;;;;;5034119;28;20040;-77
2023/05/22 04:17:36;;;;;;;4.78;2.70;;;;;;;;;;5054125;28;20428;-76
2023/05/22 04:20:03;;;;;;;4.95;2.70;;;;;;;;;;5045206;28;20032;-76
2023/05/22 04:22:29;;;;;;;4.53;2.80;;;;;;;;;;5054933;28;20416;-77
2023/05/22 04:24:55;;;;;;;7.18;2.90;;;;;;;;;;5055861;28;20043;-76
2023/05/22 04:27:21;;;;;;;4.22;2.42;;;;;;;;;;5033785;28;20032;-76
2023/05/22 04:29:49;;;;;;;5.05;2.90;;;;;;;;;;5021648;28;20028;-77
2023/05/22 04:32:17;;;;;;;5.38;2.90;;;;;;;;;;5045844;28;20414;-77
2023/05/22 04:34:44;;;;;;;5.47;2.70;;;;;;;;;;5037517;28;20029;-77
2023/05/22 04:37:10;;;;;;;4.40;2.53;;;;;;;;;;5055159;28;20542;-76
2023/05/22 04:39:36;;;;;;;4.38;2.53;;;;;;;;;;5035628;28;20037;-77
2023/05/22 04:42:04;;;;;;;4.95;2.80;;;;;;;;;;5052614;28;20052;-77
2023/05/22 04:44:33;;;;;;;4.50;2.55;;;;;;;;;;5021010;28;20550;-77
2023/05/22 04:47:00;;;;;;;7.07;2.85;;;;;;;;;;5035694;28;20043;-77
2023/05/22 04:49:25;;;;;;;4.72;2.63;;;;;;;;;;5033769;28;20116;-76
2023/05/22 04:51:52;;;;;;;6.60;3.03;;;;;;;;;;5030768;28;20511;-79
2023/05/22 04:54:18;;;;;;;4.88;2.80;;;;;;;;;;5033633;28;20048;-77
2023/05/22 04:56:44;;;;;;;6.45;3.10;;;;;;;;;;5036050;28;20056;-76
2023/05/22 04:59:10;;;;;;;5.68;2.80;;;;;;;;;;5034530;28;20045;-77
2023/05/22 05:01:36;;;;;;;7.03;2.92;;;;;;;;;;5015498;28;20174;-78
2023/05/22 05:04:02;;;;;;;5.88;2.92;;;;;;;;;;5034544;28;20041;-77
2023/05/22 05:06:27;;;;;;;5.25;2.75;;;;;;;;;;5033169;28;20028;-77
2023/05/22 05:08:53;;;;;;;6.18;2.85;;;;;;;;;;5032967;28;20076;-77
2023/05/22 05:11:20;;;;;;;6.32;2.67;;;;;;;;;;5033336;28;20029;-77
2023/05/22 05:13:45;;;;;;;5.43;3.05;;;;;;;;;;5032835;28;20450;-77
2023/05/22 05:16:11;;;;;;;4.90;2.83;;;;;;;;;;5029901;28;20061;-77
2023/05/22 05:18:36;;;;;;;5.95;2.88;;;;;;;;;;5032738;28;20488;-77
2023/05/22 05:21:01;;;;;;;7.07;2.70;;;;;;;;;;5027160;28;20038;-78
2023/05/22 05:23:27;;;;;;;5.85;3.58;;;;;;;;;;5034935;28;20492;-78
2023/05/22 05:25:52;;;;;;;6.78;2.78;;;;;;;;;;5036272;28;20034;-77
2023/05/22 05:28:18;;;;;;;7.13;3.38;;;;;;;;;;5033123;28;20563;-77
2023/05/22 05:30:44;;;;;;;8.18;3.13;;;;;;;;;;5030639;28;20603;-75
2023/05/22 05:33:10;;;;;;;6.68;3.00;;;;;;;;;;5030381;28;20036;-75
2023/05/22 05:35:35;;;;;;;5.53;2.95;;;;;;;;;;5031626;28;20048;-76
2023/05/22 05:38:01;;;;;;;5.32;2.75;;;;;;;;;;5015142;28;20380;-75
2023/05/22 05:40:26;;;;;;;5.13;2.80;;;;;;;;;;5034552;28;20038;-75
2023/05/22 05:42:51;;;;;;;12.68;3.30;;;;;;;;;;5029513;28;20497;-75
2023/05/22 05:45:17;;;;;;;5.75;3.05;;;;;;;;;;5022978;28;20037;-76
2023/05/22 05:47:42;;;;;;;5.55;2.67;;;;;;;;;;5030307;28;20032;-75
2023/05/22 05:50:08;;;;;;;6.50;2.75;;;;;;;;;;5031249;28;20032;-76
2023/05/22 05:52:34;;;;;;;5.15;3.00;;;;;;;;;;5029961;28;20045;-73
2023/05/22 05:55:02;;;;;;;6.22;3.03;;;;;;;;;;5032070;28;20045;-75
2023/05/22 05:57:29;;;;;;;5.55;3.25;;;;;;;;;;5032558;28;20049;-75
2023/05/22 05:59:55;;;;;;;;;;;;;;;;;;5029645;28;21314;-74
2023/05/22 06:02:20;;;;;;;6.17;3.50;;;;;;;;;;5029314;28;19959;-75
2023/05/22 06:04:48;;;;;;;6.00;2.90;;;;;;;;;;5030383;28;20794;-74
2023/05/22 06:07:14;;;;;;;6.63;2.95;;;;;;;;;;5038434;28;20025;-74
2023/05/22 06:09:40;;;;;;;5.88;3.03;;;;;;;;;;5034086;28;20400;-75
2023/05/22 06:12:06;;;;;;;5.68;2.83;;;;;;;;;;5032409;28;20021;-74
2023/05/22 06:14:32;;;;;;;6.35;2.72;;;;;;;;;;5033577;28;20094;-74
2023/05/22 06:16:57;;;;;;;5.05;2.95;;;;;;;;;;5032496;28;20121;-74
2023/05/22 06:19:23;;;;;;;5.75;2.92;;;;;;;;;;5029051;28;20117;-74
2023/05/22 06:21:48;;;;;;;4.40;2.83;;;;;;;;;;5030850;28;20040;-75
2023/05/22 06:24:13;;;;;;;5.53;2.75;;;;;;;;;;5030647;28;20038;-74
2023/05/22 06:26:39;;;;;;;5.10;2.85;;;;;;;;;;5033925;28;20116;-75
2023/05/22 06:29:05;;;;;;;7.93;2.90;;;;;;;;;;5040328;28;20037;-76
2023/05/22 06:31:34;;;;;;;6.43;3.22;;;;;;;;;;5033040;28;20798;-74
2023/05/22 06:33:59;;;;;;;5.25;3.10;;;;;;;;;;5031997;28;20040;-74
2023/05/22 06:36:25;;;;;;;6.85;3.30;;;;;;;;;;5029078;28;20485;-76
2023/05/22 06:38:57;;;;;;;6.07;3.40;;;;;;;;;;5033732;28;20045;-74
2023/05/22 06:41:23;;;;;;;6.18;3.33;;;;;;;;;;5029617;28;20037;-75
2023/05/22 06:43:48;;;;;;;4.47;2.78;;;;;;;;;;5036089;28;20465;-75
2023/05/22 06:46:14;;;;;;;4.45;2.83;;;;;;;;;;5014484;28;20836;-75
2023/05/22 06:48:39;;;;;;;5.95;2.90;;;;;;;;;;5031273;28;20469;-75
2023/05/22 06:51:05;;;;;;;5.15;3.20;;;;;;;;;;4999975;28;20094;-75
2023/05/22 06:53:30;;;;;;;6.90;3.60;;;;;;;;;;5031263;28;20048;-75
2023/05/22 06:55:56;;;;;;;5.63;2.60;;;;;;;;;;5019441;28;20029;-75
2023/05/22 06:58:21;;;;;;;7.07;3.22;;;;;;;;;;5027605;28;20087;-75
2023/05/22 07:00:46;;;;;;;4.68;2.90;;;;;;;;;;5043530;28;20378;-75
2023/05/22 07:03:12;;;;;;;5.15;3.35;;;;;;;;;;5035905;28;20055;-76
2023/05/22 07:05:37;;;;;;;6.30;3.33;;;;;;;;;;5033544;28;20429;-75
2023/05/22 07:08:03;;;;;;;7.35;3.85;;;;;;;;;;5036747;28;20040;-75
2023/05/22 07:10:28;;;;;;;6.82;3.13;;;;;;;;;;5035982;28;20725;-75
2023/05/22 07:12:54;;;;;;;4.78;3.05;;;;;;;;;;5043133;28;20037;-76
2023/05/22 07:15:19;;;;;;;8.60;3.38;;;;;;;;;;5033858;28;20037;-75
2023/05/22 07:17:45;;;;;;;7.85;3.20;;;;;;;;;;5032882;28;20063;-75
2023/05/22 07:20:11;;;;;;;5.78;3.22;;;;;;;;;;5031432;28;20045;-75
2023/05/22 07:22:37;;;;;;;5.18;2.88;;;;;;;;;;5034572;28;20026;-75
2023/05/22 07:25:03;;;;;;;12.23;3.42;;;;;;;;;;5037310;28;20408;-75
2023/05/22 07:27:28;;;;;;;7.97;4.20;;;;;;;;;;5042793;28;20477;-76
2023/05/22 07:29:54;;;;;;;4.32;2.88;;;;;;;;;;5021002;28;20044;-75
2023/05/22 07:32:19;;;;;;;4.80;2.72;;;;;;;;;;5036734;28;20057;-75
2023/05/22 07:34:44;;;;;;;7.85;3.35;;;;;;;;;;5033212;28;20089;-74
2023/05/22 07:37:11;;;;;;;8.75;2.60;;;;;;;;;;5015849;28;20077;-73
2023/05/22 07:39:36;;;;;;;5.18;2.92;;;;;;;;;;5033813;28;20037;-74
2023/05/22 07:42:03;;;;;;;5.45;3.15;;;;;;;;;;5036766;28;20044;-74
2023/05/22 07:44:29;;;;;;;6.60;2.95;;;;;;;;;;5033491;28;20029;-74
2023/05/22 07:46:54;;;;;;;7.18;3.63;;;;;;;;;;5034516;28;20048;-74
2023/05/22 07:49:20;;;;;;;5.53;3.38;;;;;;;;;;5043283;28;20124;-75
2023/05/22 07:51:46;;;;;;;7.35;3.08;;;;;;;;;;5031767;28;20033;-74
2023/05/22 07:54:14;;;;;;;6.32;2.80;;;;;;;;;;5051584;28;20117;-74
2023/05/22 07:56:41;;;;;;;5.47;2.75;;;;;;;;;;5035133;28;20706;-75
2023/05/22 07:59:07;;;;;;;8.85;3.13;;;;;;;;;;5035535;28;20029;-75
2023/05/22 08:01:33;;;;;;;5.88;2.80;;;;;;;;;;5056117;28;20523;-75
2023/05/22 08:03:58;;;;;;;4.95;2.75;;;;;;;;;;5037536;28;20032;-75
2023/05/22 08:06:24;;;;;;;6.03;2.67;;;;;;;;;;5033164;28;20039;-75
2023/05/22 08:08:52;;;;;;;4.80;2.50;;;;;;;;;;5053937;28;20041;-75
2023/05/22 08:11:17;;;;;;;5.50;2.72;;;;;;;;;;5037991;28;20052;-75
2023/05/22 08:13:43;;;;;;;4.30;2.63;;;;;;;;;;5052428;28;20075;-75
2023/05/22 08:16:08;;;;;;;4.00;2.70;;;;;;;;;;5051315;28;20036;-75
2023/05/22 08:18:34;;;;;;;5.00;2.65;;;;;;;;;;5054589;28;20415;-75
2023/05/22 08:20:59;;;;;;;4.30;2.90;;;;;;;;;;5036089;28;20036;-75
2023/05/22 08:23:25;;;;;;;5.47;2.83;;;;;;;;;;5040053;28;20443;-75
2023/05/22 08:25:50;;;;;;;6.38;2.70;;;;;;;;;;5037209;28;20044;-75
2023/05/22 08:28:16;;;;;;;4.68;2.65;;;;;;;;;;5052970;28;20033;-75
2023/05/22 08:30:41;;;;;;;4.72;2.88;;;;;;;;;;5037718;28;20123;-75
2023/05/22 08:33:06;;;;;;;7.25;2.60;;;;;;;;;;5037241;28;20116;-76
2023/05/22 08:35:32;;;;;;;5.05;2.50;;;;;;;;;;5034123;28;20033;-75
2023/05/22 08:37:58;;;;;;;4.68;2.60;;;;;;;;;;5053252;28;20070;-74
2023/05/22 08:40:31;;;;;;;5.72;2.60;;;;;;;;;;5035088;28;20029;-75
2023/05/22 08:42:57;;;;;;;4.63;2.20;;;;;;;;;;5037570;28;20032;-75
2023/05/22 08:45:24;;;;;;;4.22;2.50;;;;;;;;;;5053088;28;20393;-81
2023/05/22 08:47:52;;;;;;;;;;;;;;;;;;5038298;28;20546;-81
2023/05/22 08:52:56;;;;;;;4.57;2.33;;;;;;;;;;5047251;22;20046;-76
2023/05/22 08:55:21;;;;;;;3.85;2.22;;;;;;;;;;5013445;28;20103;-77
2023/05/22 08:57:48;;;;;;;8.07;2.83;;;;;;;;;;5014578;28;20698;-77
2023/05/22 09:00:15;;;;;;;3.63;2.15;;;;;;;;;;5013301;28;20026;-77
2023/05/22 09:02:41;;;;;;;4.60;2.25;;;;;;;;;;5011769;28;20046;-77
2023/05/22 09:05:08;;;;;;;4.65;1.92;;;;;;;;;;5014828;28;20937;-77
2023/05/22 09:07:33;;;;;;;4.43;2.08;;;;;;;;;;5015149;28;20050;-76
2023/05/22 09:10:00;;;;;;;3.80;2.20;;;;;;;;;;5012495;28;20432;-77
2023/05/22 09:12:28;;;;;;;3.87;1.90;;;;;;;;;;5014555;28;20037;-77
2023/05/22 09:14:54;;;;;;;3.60;2.10;;;;;;;;;;5010463;28;20492;-77
2023/05/22 09:17:20;;;;;;;4.53;2.30;;;;;;;;;;5008734;28;20038;-77
2023/05/22 09:19:46;;;;;;;7.25;2.17;;;;;;;;;;5011962;28;20040;-77
2023/05/22 09:22:12;;;;;;;7.05;2.30;;;;;;;;;;5010082;28;20038;-77
2023/05/22 09:24:40;;;;;;;4.82;2.45;;;;;;;;;;5018850;28;20025;-77
2023/05/22 09:27:06;;;;;;;4.43;2.15;;;;;;;;;;5053194;28;20039;-77
2023/05/22 09:29:35;;;;;;;6.70;2.25;;;;;;;;;;5033373;28;20070;-76
2023/05/22 09:32:01;;;;;;;4.28;1.92;;;;;;;;;;5020485;28;20036;-77
2023/05/22 09:34:28;;;;;;;3.90;2.10;;;;;;;;;;5050288;28;20041;-76
2023/05/22 09:37:00;;;;;;;;;;;;;;;;;;5052860;28;20029;-77
2023/05/22 09:39:27;;;;;;;6.00;2.50;;;;;;;;;;5052772;28;19920;-77
2023/05/22 09:41:53;;;;;;;5.28;2.33;;;;;;;;;;5050421;28;20035;-76
2023/05/22 09:44:18;;;;;;;4.85;2.20;;;;;;;;;;5036525;28;20345;-78
2023/05/22 09:46:45;;;;;;;4.15;2.33;;;;;;;;;;5032865;28;20037;-77
2023/05/22 09:49:10;;;;;;;4.93;2.03;;;;;;;;;;5049630;28;20039;-78
2023/05/22 09:51:39;;;;;;;5.82;2.33;;;;;;;;;;5036859;28;20045;-79
2023/05/22 09:54:06;;;;;;;3.63;1.92;;;;;;;;;;5033854;28;20095;-79
2023/05/22 09:56:35;;;;;;;4.13;1.63;;;;;;;;;;5051273;28;20424;-79
2023/05/22 09:59:00;;;;;;;5.40;2.08;;;;;;;;;;5034054;28;20511;-79
2023/05/22 10:01:27;;;;;;;3.42;1.92;;;;;;;;;;5050496;28;20036;-80
2023/05/22 10:04:13;;;;;;;4.32;2.00;;;;;;;;;;5037731;28;20101;-79
2023/05/22 10:06:39;;;;;;;4.65;2.35;;;;;;;;;;4991396;28;20563;-79
2023/05/22 10:09:07;;;;;;;3.33;1.60;;;;;;;;;;4990880;28;20153;-79
2023/05/22 10:11:34;;;;;;;4.20;2.10;;;;;;;;;;4982136;28;20040;-79
2023/05/22 10:14:00;;;;;;;3.87;1.70;;;;;;;;;;4982480;28;20230;-79
2023/05/22 10:16:26;;;;;;;4.10;2.03;;;;;;;;;;4974329;28;20038;-79
2023/05/22 10:18:52;;;;;;;3.67;1.80;;;;;;;;;;4979831;28;20046;-79
2023/05/22 10:21:18;;;;;;;4.97;1.83;;;;;;;;;;4961778;28;20595;-80
2023/05/22 10:23:44;;;;;;;3.45;1.70;;;;;;;;;;4982487;28;20046;-78
2023/05/22 10:26:10;;;;;;;5.28;1.88;;;;;;;;;;4980176;28;20093;-78
2023/05/22 10:28:45;;;;;;;4.78;1.70;;;;;;;;;;4968407;28;20552;-78
2023/05/22 10:31:41;;;;;;;3.70;1.63;;;;;;;;;;4986422;28;20052;-78
2023/05/22 10:34:09;;;;;;;3.65;1.70;;;;;;;;;;4990469;28;20042;-78
2023/05/22 10:36:46;;;;;;;3.45;2.15;;;;;;;;;;4964650;28;20031;-78
2023/05/22 10:39:23;;;;;;;5.78;1.92;;;;;;;;;;4996009;28;20063;-78
2023/05/22 10:41:48;;;;;;;4.95;1.75;;;;;;;;;;4994974;28;20148;-77
2023/05/22 10:44:14;;;;;;;4.28;1.88;;;;;;;;;;5039691;28;20132;-78
2023/05/22 10:46:47;;;;;;;4.43;1.80;;;;;;;;;;5056031;28;20728;-78
2023/05/22 10:49:20;;;;;;;3.85;1.65;;;;;;;;;;5039318;28;20483;-78
2023/05/22 10:51:46;;;;;;;5.22;1.70;;;;;;;;;;5035022;28;20123;-78
2023/05/22 10:54:11;;;;;;;4.05;2.10;;;;;;;;;;5025991;28;20564;-78
2023/05/22 10:56:37;;;;;;;3.70;1.70;;;;;;;;;;5054577;28;20508;-78
2023/05/22 10:59:04;;;;;;;3.72;1.75;;;;;;;;;;5053569;28;20476;-77
2023/05/22 11:01:34;;;;;;;3.20;1.80;;;;;;;;;;5024232;28;20036;-77
2023/05/22 11:04:01;;;;;;;3.80;1.60;;;;;;;;;;5038213;28;20033;-77
2023/05/22 11:06:45;;;;;;;6.88;1.80;;;;;;;;;;5023006;28;20032;-76
2023/05/22 11:09:28;;;;;;;6.85;1.92;;;;;;;;;;5040738;28;20096;-77
2023/05/22 11:12:12;;;;;;;5.03;2.00;;;;;;;;;;5038322;28;20635;-78
2023/05/22 11:14:37;;;;;;;3.72;1.77;;;;;;;;;;5053580;28;20064;-77
2023/05/22 11:17:05;;;;;;;4.10;1.92;;;;;;;;;;5040952;28;21090;-76
2023/05/22 11:19:30;;;;;;;3.15;1.60;;;;;;;;;;5030120;28;20025;-78
2023/05/22 11:22:00;;;;;;;3.58;1.77;;;;;;;;;;5034207;28;20048;-79
2023/05/22 11:24:25;;;;;;;3.25;1.70;;;;;;;;;;5040722;28;21468;-78
2023/05/22 11:27:02;;;;;;;6.20;1.60;;;;;;;;;;5039694;28;20045;-79
2023/05/22 11:29:28;;;;;;;6.05;2.00;;;;;;;;;;5055896;28;20072;-79
2023/05/22 11:31:53;;;;;;;4.97;1.85;;;;;;;;;;5052737;28;20036;-79
2023/05/22 11:34:19;;;;;;;4.30;2.00;;;;;;;;;;5054730;28;20094;-79
2023/05/22 11:36:46;;;;;;;8.75;2.47;;;;;;;;;;5051472;28;20377;-79
2023/05/22 11:39:13;;;;;;;3.55;1.70;;;;;;;;;;5035607;28;20043;-78
2023/05/22 11:41:39;;;;;;;3.35;1.50;;;;;;;;;;5055083;28;20040;-80
2023/05/22 11:44:06;;;;;;;6.38;2.10;;;;;;;;;;5023514;28;20037;-79
2023/05/22 11:46:53;;;;;;;3.35;1.77;;;;;;;;;;5026788;28;20040;-80
2023/05/22 11:49:22;;;;;;;5.57;2.03;;;;;;;;;;4971836;28;20677;-80
2023/05/22 11:51:48;;;;;;;3.53;1.77;;;;;;;;;;4933715;28;20282;-80
2023/05/22 11:54:16;;;;;;;4.50;1.90;;;;;;;;;;4949772;28;20081;-80
2023/05/22 11:56:42;;;;;;;3.75;1.67;;;;;;;;;;4946201;28;20039;-80
2023/05/22 11:59:07;;;;;;;3.20;1.58;;;;;;;;;;4956334;28;20117;-80
2023/05/22 12:01:35;;;;;;;4.78;1.75;;;;;;;;;;4958226;28;20062;-80
2023/05/22 12:04:00;;;;;;;4.60;1.60;;;;;;;;;;4959478;28;20059;-80
2023/05/22 12:06:26;;;;;;;3.65;1.60;;;;;;;;;;4949581;28;20561;-79
2023/05/22 12:08:51;;;;;;;3.85;1.90;;;;;;;;;;4975813;28;20513;-79
2023/05/22 12:11:17;;;;;;;3.72;1.77;;;;;;;;;;4971594;28;20038;-79
2023/05/22 12:13:42;;;;;;;6.30;2.00;;;;;;;;;;4957746;28;20038;-78
2023/05/22 12:16:18;;;;;;;6.15;1.88;;;;;;;;;;4965777;28;20651;-79
2023/05/22 12:18:43;;;;;;;4.03;1.60;;;;;;;;;;4972200;28;20039;-78
2023/05/22 12:21:09;;;;;;;6.05;2.33;;;;;;;;;;4969112;28;20050;-76
2023/05/22 12:23:35;;;;;;;6.30;1.67;;;;;;;;;;4975164;28;20866;-75
2023/05/22 12:26:08;;;;;;;3.92;1.60;;;;;;;;;;4994809;28;20036;-76
2023/05/22 12:28:33;;;;;;;5.20;1.67;;;;;;;;;;5054301;28;20488;-75
2023/05/22 12:30:59;;;;;;;4.43;1.70;;;;;;;;;;5033115;28;20029;-75
2023/05/22 12:33:30;;;;;;;3.58;1.65;;;;;;;;;;5024414;28;20029;-75
2023/05/22 12:36:16;;;;;;;3.70;1.88;;;;;;;;;;5032427;28;20102;-75
2023/05/22 12:38:42;;;;;;;4.20;1.80;;;;;;;;;;4971295;28;20053;-75
2023/05/22 12:41:07;;;;;;;3.78;1.80;;;;;;;;;;4958849;28;20506;-75
2023/05/22 12:43:33;;;;;;;5.85;2.08;;;;;;;;;;4971689;28;20039;-76
2023/05/22 12:45:58;;;;;;;3.35;1.80;;;;;;;;;;4971626;28;20039;-75
2023/05/22 12:48:24;;;;;;;4.90;1.80;;;;;;;;;;4968405;28;20061;-75
2023/05/22 12:50:50;;;;;;;4.07;1.83;;;;;;;;;;4942828;28;20935;-76
2023/05/22 12:53:15;;;;;;;4.22;1.80;;;;;;;;;;4974033;28;20045;-76
2023/05/22 12:55:41;;;;;;;3.22;1.60;;;;;;;;;;4974491;28;20042;-76
2023/05/22 12:58:07;;;;;;;4.05;1.70;;;;;;;;;;4964169;28;20461;-76
2023/05/22 13:00:33;;;;;;;4.55;1.85;;;;;;;;;;4970091;28;20034;-76
2023/05/22 13:02:58;;;;;;;4.28;1.60;;;;;;;;;;4971988;28;20049;-77
2023/05/22 13:05:24;;;;;;;4.25;1.90;;;;;;;;;;4943031;28;20039;-77
2023/05/22 13:07:51;;;;;;;3.35;1.45;;;;;;;;;;4973906;28;20467;-77
2023/05/22 13:10:17;;;;;;;;;;;;;;;;;;4963265;28;20498;-76
2023/05/22 13:12:45;;;;;;;3.53;1.30;;;;;;;;;;4956675;28;19913;-76
2023/05/22 13:15:12;;;;;;;3.72;1.58;;;;;;;;;;4976646;28;20053;-77
2023/05/22 13:17:38;;;;;;;3.95;1.48;;;;;;;;;;5028558;28;20098;-76
2023/05/22 13:20:04;;;;;;;2.80;1.25;;;;;;;;;;5032079;28;20049;-75
2023/05/22 13:22:29;;;;;;;3.70;1.73;;;;;;;;;;5032458;28;20029;-75
2023/05/22 13:25:17;;;;;;;3.22;1.50;;;;;;;;;;5031223;28;20363;-75
2023/05/22 13:27:43;;;;;;;3.00;1.58;;;;;;;;;;4958055;28;20501;-77
2023/05/22 13:30:09;;;;;;;5.13;2.33;;;;;;;;;;4977232;28;20050;-77
2023/05/22 13:32:34;;;;;;;2.90;1.40;;;;;;;;;;4948764;28;20038;-76
2023/05/22 13:35:00;;;;;;;3.55;1.90;;;;;;;;;;4964241;28;20927;-76
2023/05/22 13:37:25;;;;;;;3.85;1.40;;;;;;;;;;4974738;28;20044;-76
2023/05/22 13:39:50;;;;;;;3.08;1.50;;;;;;;;;;4968035;28;20042;-76
2023/05/22 13:42:19;;;;;;;3.55;1.40;;;;;;;;;;4972513;28;20034;-76
2023/05/22 13:44:45;;;;;;;3.72;1.58;;;;;;;;;;4976541;28;20078;-75
2023/05/22 13:47:10;;;;;;;4.03;1.80;;;;;;;;;;4974171;28;20030;-75
2023/05/22 13:49:36;;;;;;;3.60;1.43;;;;;;;;;;4975008;28;20045;-77
2023/05/22 13:52:01;;;;;;;4.30;1.40;;;;;;;;;;4950411;28;20045;-75
2023/05/22 13:54:26;;;;;;;3.70;1.70;;;;;;;;;;4959337;28;20042;-75
2023/05/22 13:56:52;;;;;;;5.15;1.33;;;;;;;;;;4975618;28;20042;-75
2023/05/22 13:59:17;;;;;;;4.40;1.50;;;;;;;;;;4963533;28;20035;-76
2023/05/22 14:01:42;;;;;;;3.28;1.40;;;;;;;;;;4972309;28;20109;-75
2023/05/22 14:04:11;;;;;;;2.72;1.25;;;;;;;;;;4982158;28;20363;-76
2023/05/22 14:06:36;;;;;;;3.00;1.42;;;;;;;;;;5012918;28;20034;-76
2023/05/22 14:09:04;;;;;;;4.43;1.60;;;;;;;;;;5020993;28;20099;-76
2023/05/22 14:11:30;;;;;;;3.47;1.48;;;;;;;;;;5009367;28;20030;-75
2023/05/22 14:13:55;;;;;;;3.22;1.60;;;;;;;;;;5012322;28;20041;-75
2023/05/22 14:16:21;;;;;;;3.80;1.50;;;;;;;;;;5004173;28;20120;-75
2023/05/22 14:18:46;;;;;;;3.30;1.45;;;;;;;;;;5014393;28;20099;-75
2023/05/22 14:21:13;;;;;;;3.28;1.48;;;;;;;;;;5011225;28;20038;-76
2023/05/22 14:23:38;;;;;;;3.13;1.50;;;;;;;;;;5011171;28;20460;-75
2023/05/22 14:26:04;;;;;;;2.90;1.52;;;;;;;;;;5020306;28;20038;-74
2023/05/22 14:28:31;;;;;;;4.65;1.63;;;;;;;;;;5009605;28;20080;-75
2023/05/22 14:30:56;;;;;;;4.60;2.08;;;;;;;;;;5019405;28;20056;-75
2023/05/22 14:33:22;;;;;;;3.97;1.67;;;;;;;;;;5020299;28;20034;-75
2023/05/22 14:35:47;;;;;;;4.78;1.50;;;;;;;;;;5011497;28;20104;-75
2023/05/22 14:38:13;;;;;;;2.78;1.58;;;;;;;;;;5009124;28;20128;-75
2023/05/22 14:40:38;;;;;;;4.43;1.70;;;;;;;;;;4990704;28;20030;-76
2023/05/22 14:43:03;;;;;;;5.68;1.90;;;;;;;;;;5003840;28;20091;-75
2023/05/22 14:45:29;;;;;;;4.70;1.88;;;;;;;;;;5011603;28;20449;-76
2023/05/22 14:47:54;;;;;;;4.00;1.70;;;;;;;;;;5009746;28;20040;-75